createdAt,value
2017-05-16T00:00:17.060Z,73.00
2017-05-16T00:02:46.840Z,71.80
2017-05-16T00:05:15.931Z,73.80
2017-05-16T00:07:44.969Z,74.40
2017-05-16T00:10:14.777Z,73.00
2017-05-16T00:12:44.556Z,73.20
2017-05-16T00:15:13.626Z,73.60
2017-05-16T00:17:42.679Z,73.70
2017-05-16T00:20:12.500Z,73.90
2017-05-16T00:22:42.349Z,74.20
2017-05-16T00:25:11.416Z,75.40
2017-05-16T00:27:40.821Z,76.20
2017-05-16T00:30:09.859Z,73.20
2017-05-16T00:32:38.944Z,74.50
2017-05-16T00:35:07.998Z,74.80
2017-05-16T00:37:37.820Z,75.10
2017-05-16T00:40:06.887Z,74.80
2017-05-16T00:42:36.717Z,76.00
2017-05-16T00:45:06.492Z,74.40
2017-05-16T00:47:35.641Z,74.60
2017-05-16T00:50:04.936Z,75.50
2017-05-16T00:52:34.015Z,75.80
2017-05-16T00:55:03.774Z,76.00
2017-05-16T00:57:32.850Z,76.80
2017-05-16T01:00:01.925Z,76.00
2017-05-16T01:02:31.703Z,76.50
2017-05-16T01:05:00.772Z,77.50
2017-05-16T01:07:30.040Z,78.30
2017-05-16T01:09:59.112Z,77.00
2017-05-16T01:12:28.139Z,78.70
2017-05-16T01:14:57.213Z,77.80
2017-05-16T01:17:27.037Z,81.50
2017-05-16T01:19:56.080Z,81.50
2017-05-16T01:22:25.163Z,81.20
2017-05-16T01:24:54.216Z,80.80
2017-05-16T01:27:24.050Z,81.50
2017-05-16T01:29:53.321Z,80.40
2017-05-16T01:32:23.150Z,80.10
2017-05-16T01:34:52.207Z,78.30
2017-05-16T01:37:21.318Z,79.80
2017-05-16T01:39:50.355Z,80.30
2017-05-16T01:42:19.435Z,80.00
2017-05-16T01:44:48.524Z,79.40
2017-05-16T01:47:17.573Z,81.10
2017-05-16T01:49:46.668Z,80.00
2017-05-16T01:52:15.709Z,80.00
2017-05-16T01:54:45.531Z,80.00
2017-05-16T01:57:14.796Z,80.80
2017-05-16T01:59:43.903Z,80.00
2017-05-16T02:02:13.680Z,80.00
2017-05-16T02:04:42.772Z,80.20
2017-05-16T02:07:11.804Z,80.40
2017-05-16T02:09:40.881Z,80.20
2017-05-16T02:12:10.224Z,80.00
2017-05-16T02:14:39.304Z,80.50
2017-05-16T02:17:09.087Z,77.70
2017-05-16T02:19:38.167Z,80.20
2017-05-16T02:22:07.206Z,79.40
2017-05-16T02:24:37.027Z,78.20
2017-05-16T02:27:06.089Z,79.50
2017-05-16T02:29:35.169Z,80.20
2017-05-16T02:32:04.256Z,78.60
2017-05-16T02:34:33.300Z,77.80
2017-05-16T02:37:03.131Z,78.60
2017-05-16T02:39:32.160Z,76.70
2017-05-16T02:42:01.227Z,76.60
2017-05-16T02:44:30.672Z,79.00
2017-05-16T02:46:59.923Z,78.30
2017-05-16T02:49:29.008Z,76.70
2017-05-16T02:51:58.051Z,77.10
2017-05-16T02:54:27.135Z,80.20
2017-05-16T02:56:56.163Z,78.00
2017-05-16T02:59:25.253Z,78.30
2017-05-16T03:01:54.299Z,76.60
2017-05-16T03:04:23.363Z,76.00
2017-05-16T03:06:52.447Z,79.30
2017-05-16T03:09:21.497Z,77.50
2017-05-16T03:11:50.569Z,76.70
2017-05-16T03:14:20.400Z,77.40
2017-05-16T03:16:49.438Z,78.80
2017-05-16T03:19:18.528Z,77.10
2017-05-16T03:21:47.674Z,79.00
2017-05-16T03:24:16.753Z,79.60
2017-05-16T03:26:46.584Z,74.40
2017-05-16T03:29:16.360Z,75.70
2017-05-16T03:31:45.435Z,77.10
2017-05-16T03:34:14.473Z,75.70
2017-05-16T03:36:44.310Z,79.00
2017-05-16T03:39:13.337Z,77.00
2017-05-16T03:41:42.423Z,77.10
2017-05-16T03:44:11.467Z,77.70
2017-05-16T03:46:40.524Z,76.40
2017-05-16T03:49:09.607Z,77.70
2017-05-16T03:51:38.648Z,78.20
2017-05-16T03:54:07.721Z,77.40
2017-05-16T03:56:36.813Z,77.00
2017-05-16T03:59:05.864Z,80.90
2017-05-16T04:01:34.939Z,79.50
2017-05-16T04:04:04.719Z,76.30
2017-05-16T04:06:33.791Z,76.60
2017-05-16T04:09:02.900Z,76.40
2017-05-16T04:11:31.939Z,77.60
2017-05-16T04:14:01.769Z,77.30
2017-05-16T04:16:30.808Z,79.00
2017-05-16T04:18:59.887Z,77.60
2017-05-16T04:21:28.926Z,75.20
2017-05-16T04:23:58.013Z,77.90
2017-05-16T04:26:27.352Z,78.80
2017-05-16T04:28:56.389Z,79.20
2017-05-16T04:31:25.455Z,77.40
2017-05-16T04:33:54.540Z,75.90
2017-05-16T04:36:23.843Z,76.20
2017-05-16T04:38:52.944Z,78.10
2017-05-16T04:41:21.980Z,78.40
2017-05-16T04:43:51.068Z,77.70
2017-05-16T04:46:20.123Z,77.70
2017-05-16T04:48:49.251Z,80.20
2017-05-16T04:51:18.255Z,80.10
2017-05-16T04:53:47.348Z,76.70
2017-05-16T04:56:16.448Z,74.00
2017-05-16T04:58:45.490Z,77.70
2017-05-16T05:01:15.303Z,72.30
2017-05-16T05:03:44.455Z,73.40
2017-05-16T05:06:13.527Z,75.20
2017-05-16T05:08:42.604Z,74.20
2017-05-16T05:11:11.695Z,70.90
2017-05-16T05:13:40.748Z,75.50
2017-05-16T05:16:09.838Z,72.50
2017-05-16T05:18:38.904Z,69.60
2017-05-16T05:21:07.984Z,70.00
2017-05-16T05:23:37.037Z,68.60
2017-05-16T05:26:06.136Z,69.20
2017-05-16T05:28:35.184Z,66.80
2017-05-16T05:31:04.262Z,65.90
2017-05-16T05:33:33.307Z,63.60
2017-05-16T05:36:02.385Z,67.10
2017-05-16T05:38:32.670Z,62.40
2017-05-16T05:41:01.710Z,65.30
2017-05-16T05:43:30.820Z,65.50
2017-05-16T05:45:59.868Z,69.40
2017-05-16T05:48:28.943Z,67.70
2017-05-16T05:50:58.723Z,62.80
2017-05-16T05:53:27.808Z,66.60
2017-05-16T05:55:56.864Z,68.10
2017-05-16T05:58:25.956Z,64.00
2017-05-16T06:00:55.252Z,64.20
2017-05-16T06:03:24.339Z,66.60
2017-05-16T06:05:54.168Z,64.90
2017-05-16T06:08:23.213Z,61.80
2017-05-16T06:10:52.283Z,61.60
2017-05-16T06:13:21.355Z,62.10
2017-05-16T06:15:50.404Z,62.80
2017-05-16T06:18:19.496Z,61.30
2017-05-16T06:20:48.534Z,60.90
2017-05-16T06:23:17.636Z,59.80
2017-05-16T06:25:46.684Z,61.00
2017-05-16T06:28:15.742Z,60.20
2017-05-16T06:30:44.835Z,59.60
2017-05-16T06:33:13.881Z,58.70
2017-05-16T06:35:42.960Z,58.00
2017-05-16T06:38:11.994Z,56.80
2017-05-16T06:40:41.818Z,56.80
2017-05-16T06:43:10.864Z,56.70
2017-05-16T06:45:39.951Z,56.90
2017-05-16T06:48:08.992Z,56.80
2017-05-16T06:50:38.823Z,56.80
2017-05-16T06:53:07.865Z,56.70
2017-05-16T06:55:37.212Z,56.60
2017-05-16T06:58:06.257Z,56.60
2017-05-16T07:00:35.337Z,55.90
2017-05-16T07:03:04.373Z,55.90
2017-05-16T07:05:34.519Z,56.00
2017-05-16T07:08:03.546Z,55.80
2017-05-16T07:10:32.640Z,55.20
2017-05-16T07:13:01.676Z,54.80
2017-05-16T07:15:30.756Z,53.10
2017-05-16T07:17:59.815Z,53.10
2017-05-16T07:20:28.913Z,53.40
2017-05-16T07:22:57.944Z,51.90
2017-05-16T07:25:27.788Z,52.10
2017-05-16T07:27:57.574Z,53.60
2017-05-16T07:30:26.667Z,54.00
2017-05-16T07:32:56.009Z,54.10
2017-05-16T07:35:25.101Z,53.10
2017-05-16T07:37:54.879Z,52.90
2017-05-16T07:40:24.207Z,52.20
2017-05-16T07:42:54.233Z,54.30
2017-05-16T07:45:23.303Z,53.70
2017-05-16T07:47:52.337Z,52.10
2017-05-16T07:50:21.411Z,51.20
2017-05-16T07:52:51.251Z,51.90
2017-05-16T07:55:20.296Z,50.50
2017-05-16T07:57:49.380Z,49.70
2017-05-16T08:00:18.627Z,51.90
2017-05-16T08:02:47.709Z,53.10
2017-05-16T08:05:17.488Z,51.20
2017-05-16T08:07:46.563Z,50.20
2017-05-16T08:10:15.831Z,49.70
2017-05-16T08:12:44.916Z,48.70
2017-05-16T08:15:14.694Z,48.60
2017-05-16T08:17:43.768Z,50.40
2017-05-16T08:20:12.832Z,49.60
2017-05-16T08:22:41.912Z,49.10
2017-05-16T08:25:11.690Z,49.70
2017-05-16T08:27:40.756Z,50.40
2017-05-16T08:30:09.837Z,49.80
2017-05-16T08:32:38.879Z,52.50
2017-05-16T08:35:07.964Z,48.70
2017-05-16T08:37:37.001Z,49.70
2017-05-16T08:40:06.805Z,49.30
2017-05-16T08:42:36.650Z,45.90
2017-05-16T08:45:05.695Z,46.40
2017-05-16T08:47:34.764Z,48.30
2017-05-16T08:50:04.128Z,52.50
2017-05-16T08:52:33.939Z,51.10
2017-05-16T08:55:02.977Z,46.40
2017-05-16T08:57:32.343Z,45.70
2017-05-16T09:00:01.370Z,46.30
2017-05-16T09:02:30.510Z,46.50
2017-05-16T09:05:00.319Z,49.00
2017-05-16T09:07:29.356Z,48.00
2017-05-16T09:09:58.739Z,47.60
2017-05-16T09:12:27.770Z,47.50
2017-05-16T09:14:56.862Z,47.00
2017-05-16T09:17:25.910Z,49.10
2017-05-16T09:19:55.000Z,49.10
2017-05-16T09:22:24.044Z,51.40
2017-05-16T09:24:53.103Z,52.10
2017-05-16T09:27:22.918Z,50.00
2017-05-16T09:29:52.705Z,50.80
2017-05-16T09:32:21.792Z,50.20
2017-05-16T09:34:50.822Z,48.40
2017-05-16T09:37:20.233Z,49.50
2017-05-16T09:39:49.272Z,49.70
2017-05-16T09:42:18.342Z,48.30
2017-05-16T09:44:47.723Z,48.00
2017-05-16T09:47:16.798Z,51.00
2017-05-16T09:49:45.819Z,50.00
2017-05-16T09:52:14.904Z,50.00
2017-05-16T09:54:44.674Z,50.60
2017-05-16T09:57:13.768Z,50.00
2017-05-16T09:59:42.811Z,50.40
2017-05-16T10:02:12.637Z,51.00
2017-05-16T10:04:41.671Z,52.00
2017-05-16T10:07:11.927Z,50.70
2017-05-16T10:09:41.704Z,52.30
2017-05-16T10:12:10.784Z,50.90
2017-05-16T10:14:39.814Z,54.00
2017-05-16T10:17:08.892Z,53.20
2017-05-16T10:19:37.923Z,53.60
2017-05-16T10:22:07.737Z,52.70
2017-05-16T10:24:37.552Z,52.60
2017-05-16T10:27:07.323Z,53.50
2017-05-16T10:29:36.422Z,53.40
2017-05-16T10:32:05.451Z,54.60
2017-05-16T10:34:35.337Z,55.10
2017-05-16T10:37:04.371Z,53.90
2017-05-16T10:39:33.431Z,54.40
2017-05-16T10:42:02.500Z,54.10
2017-05-16T10:44:31.542Z,56.40
2017-05-16T10:47:01.351Z,54.60
2017-05-16T10:49:30.380Z,55.90
2017-05-16T10:51:59.452Z,55.10
2017-05-16T10:54:29.228Z,54.00
2017-05-16T10:56:58.577Z,54.20
2017-05-16T10:59:28.344Z,54.50
2017-05-16T11:01:57.662Z,54.50
2017-05-16T11:04:26.694Z,55.90
2017-05-16T11:06:55.776Z,55.10
2017-05-16T11:09:25.551Z,53.60
2017-05-16T11:11:54.892Z,53.50
2017-05-16T11:14:24.708Z,53.50
2017-05-16T11:16:53.749Z,54.40
2017-05-16T11:19:22.821Z,54.20
2017-05-16T11:21:51.894Z,53.30
2017-05-16T11:24:20.930Z,53.70
2017-05-16T11:26:50.018Z,54.70
2017-05-16T11:29:19.052Z,53.90
2017-05-16T11:31:48.120Z,54.80
2017-05-16T11:34:17.192Z,55.00
2017-05-16T11:36:46.235Z,55.20
2017-05-16T11:39:15.299Z,54.00
2017-05-16T11:41:44.390Z,53.30
2017-05-16T11:44:13.431Z,53.40
2017-05-16T11:46:43.262Z,53.60
2017-05-16T11:49:13.027Z,53.30
2017-05-16T11:51:42.100Z,52.60
2017-05-16T11:54:11.153Z,53.50
2017-05-16T11:56:40.976Z,54.30
2017-05-16T11:59:11.005Z,52.50
2017-05-16T12:01:40.078Z,52.30
2017-05-16T12:04:09.846Z,52.00
2017-05-16T12:06:38.924Z,52.90
2017-05-16T12:09:07.971Z,51.90
2017-05-16T12:11:37.784Z,52.00
2017-05-16T12:14:06.818Z,52.60
2017-05-16T12:16:35.907Z,52.50
2017-05-16T12:19:04.947Z,52.60
2017-05-16T12:21:34.026Z,54.20
2017-05-16T12:24:03.100Z,53.00
2017-05-16T12:26:32.135Z,53.60
2017-05-16T12:29:01.474Z,52.60
2017-05-16T12:31:30.552Z,52.80
2017-05-16T12:33:59.600Z,53.60
2017-05-16T12:36:28.668Z,52.70
2017-05-16T12:38:57.732Z,53.50
2017-05-16T12:41:26.791Z,54.10
2017-05-16T12:43:55.877Z,54.60
2017-05-16T12:46:24.921Z,54.50
2017-05-16T12:48:53.986Z,54.70
2017-05-16T12:51:23.079Z,55.90
2017-05-16T12:53:52.122Z,57.00
2017-05-16T12:56:22.340Z,57.00
2017-05-16T12:58:52.106Z,58.30
2017-05-16T13:01:21.175Z,58.00
2017-05-16T13:03:50.209Z,57.30
2017-05-16T13:06:19.285Z,57.40
2017-05-16T13:08:48.310Z,59.10
2017-05-16T13:11:17.374Z,57.70
2017-05-16T13:13:46.460Z,59.10
2017-05-16T13:16:15.490Z,57.50
2017-05-16T13:18:44.572Z,57.00
2017-05-16T13:21:13.934Z,58.10
2017-05-16T13:23:42.975Z,56.60
2017-05-16T13:26:12.048Z,55.90
2017-05-16T13:28:41.083Z,55.80
2017-05-16T13:31:10.169Z,57.40
2017-05-16T13:33:39.219Z,57.70
2017-05-16T13:36:08.302Z,57.90
2017-05-16T13:38:37.357Z,56.70
2017-05-16T13:41:06.694Z,56.90
2017-05-16T13:43:35.780Z,57.40
2017-05-16T13:46:05.557Z,57.30
2017-05-16T13:48:34.648Z,57.00
2017-05-16T13:51:03.687Z,57.50
2017-05-16T13:53:33.520Z,56.30
2017-05-16T13:56:02.565Z,57.00
2017-05-16T13:58:31.641Z,55.90
2017-05-16T14:01:00.760Z,56.60
2017-05-16T14:03:29.851Z,57.00
2017-05-16T14:05:58.908Z,57.20
2017-05-16T14:08:27.992Z,56.70
2017-05-16T14:10:57.035Z,55.30
2017-05-16T14:13:26.115Z,54.80
2017-05-16T14:15:55.163Z,55.70
2017-05-16T14:18:24.245Z,56.20
2017-05-16T14:20:54.057Z,56.30
2017-05-16T14:23:23.381Z,55.60
2017-05-16T14:25:52.459Z,54.40
2017-05-16T14:28:22.251Z,54.30
2017-05-16T14:30:51.330Z,53.70
2017-05-16T14:33:20.368Z,53.00
2017-05-16T14:35:50.192Z,53.60
2017-05-16T14:38:19.234Z,54.00
2017-05-16T14:40:48.323Z,53.40
2017-05-16T14:43:17.413Z,52.30
2017-05-16T14:45:46.450Z,53.30
2017-05-16T14:48:15.523Z,53.60
2017-05-16T14:50:44.605Z,53.20
2017-05-16T14:53:13.631Z,54.60
2017-05-16T14:55:42.695Z,54.10
2017-05-16T14:58:11.787Z,55.80
2017-05-16T15:00:40.836Z,55.50
2017-05-16T15:03:10.742Z,57.20
2017-05-16T15:05:39.768Z,56.70
2017-05-16T15:08:08.868Z,57.40
2017-05-16T15:10:37.911Z,58.00
2017-05-16T15:13:07.009Z,56.50
2017-05-16T15:15:36.039Z,56.70
2017-05-16T15:18:05.440Z,56.80
2017-05-16T15:20:35.211Z,55.90
2017-05-16T15:23:04.556Z,56.60
2017-05-16T15:25:33.584Z,56.60
2017-05-16T15:28:02.649Z,56.50
2017-05-16T15:30:31.720Z,56.90
2017-05-16T15:33:01.494Z,56.90
2017-05-16T15:35:30.599Z,58.20
2017-05-16T15:37:59.947Z,58.20
2017-05-16T15:40:29.016Z,59.20
2017-05-16T15:42:58.096Z,59.50
2017-05-16T15:45:27.132Z,60.50
2017-05-16T15:47:56.417Z,62.20
2017-05-16T15:50:26.204Z,60.70
2017-05-16T15:52:55.270Z,62.30
2017-05-16T15:55:24.644Z,62.00
2017-05-16T15:57:54.456Z,63.50
2017-05-16T16:00:24.279Z,63.80
2017-05-16T16:02:53.309Z,62.80
2017-05-16T16:05:22.383Z,62.10
2017-05-16T16:07:51.467Z,62.40
2017-05-16T16:10:20.508Z,61.50
2017-05-16T16:12:49.566Z,63.70
2017-05-16T16:15:18.660Z,61.60
2017-05-16T16:17:48.043Z,63.20
2017-05-16T16:20:17.074Z,63.10
2017-05-16T16:22:46.167Z,62.30
2017-05-16T16:25:15.208Z,62.70
2017-05-16T16:27:44.305Z,61.40
2017-05-16T16:30:13.340Z,61.80
2017-05-16T16:32:42.408Z,61.80
2017-05-16T16:35:12.211Z,61.00
2017-05-16T16:37:42.013Z,60.90
2017-05-16T16:40:11.072Z,60.40
2017-05-16T16:42:40.442Z,60.30
2017-05-16T16:45:09.540Z,60.40
2017-05-16T16:47:38.579Z,60.70
2017-05-16T16:50:07.639Z,60.80
2017-05-16T16:52:36.687Z,60.50
2017-05-16T16:55:05.780Z,60.70
2017-05-16T16:57:34.836Z,59.90
2017-05-16T17:00:03.926Z,59.10
2017-05-16T17:02:32.954Z,58.90
2017-05-16T17:05:02.026Z,58.70
2017-05-16T17:07:31.093Z,57.50
2017-05-16T17:10:00.126Z,57.30
2017-05-16T17:12:29.192Z,57.60
2017-05-16T17:14:58.224Z,57.20
2017-05-16T17:17:27.298Z,57.40
2017-05-16T17:19:56.334Z,57.50
2017-05-16T17:22:26.487Z,58.00
2017-05-16T17:24:55.518Z,57.70
2017-05-16T17:27:24.592Z,58.00
2017-05-16T17:29:53.631Z,58.50
2017-05-16T17:32:22.713Z,58.60
2017-05-16T17:34:52.073Z,58.70
2017-05-16T17:37:21.159Z,58.80
2017-05-16T17:39:50.919Z,58.90
2017-05-16T17:42:19.984Z,59.30
2017-05-16T17:44:49.074Z,59.40
2017-05-16T17:47:18.112Z,59.70
2017-05-16T17:49:47.186Z,60.00
2017-05-16T17:52:16.459Z,60.00
2017-05-16T17:54:45.536Z,60.20
2017-05-16T17:57:14.579Z,60.40
2017-05-16T17:59:43.675Z,60.40
2017-05-16T18:02:12.703Z,60.00
2017-05-16T18:04:41.771Z,60.00
2017-05-16T18:07:10.803Z,60.60
2017-05-16T18:09:39.884Z,60.80
2017-05-16T18:12:08.914Z,60.70
2017-05-16T18:14:38.718Z,61.30
2017-05-16T18:17:07.791Z,61.20
2017-05-16T18:19:36.827Z,61.20
2017-05-16T18:22:05.970Z,61.20
2017-05-16T18:24:35.019Z,61.00
2017-05-16T18:27:04.083Z,61.20
2017-05-16T18:29:33.165Z,61.40
2017-05-16T18:32:02.203Z,61.60
2017-05-16T18:34:31.284Z,62.30
2017-05-16T18:37:01.121Z,62.00
2017-05-16T18:39:30.185Z,62.40
2017-05-16T18:41:59.265Z,62.60
2017-05-16T18:44:28.337Z,62.70
2017-05-16T18:46:57.405Z,62.40
2017-05-16T18:49:26.436Z,61.90
2017-05-16T18:51:55.498Z,61.70
2017-05-16T18:54:24.536Z,62.00
2017-05-16T18:56:53.621Z,61.60
2017-05-16T18:59:22.975Z,61.80
2017-05-16T19:01:52.797Z,61.80
2017-05-16T19:04:22.087Z,61.80
2017-05-16T19:06:51.193Z,62.60
2017-05-16T19:09:20.225Z,61.90
2017-05-16T19:11:49.288Z,62.30
2017-05-16T19:14:18.575Z,62.40
2017-05-16T19:16:47.651Z,63.40
2017-05-16T19:19:16.689Z,62.70
2017-05-16T19:21:45.767Z,62.60
2017-05-16T19:24:14.805Z,62.70
2017-05-16T19:26:43.884Z,62.30
2017-05-16T19:29:12.931Z,62.00
2017-05-16T19:31:42.736Z,62.70
2017-05-16T19:34:11.824Z,62.90
2017-05-16T19:36:40.858Z,62.70
2017-05-16T19:39:09.950Z,62.90
2017-05-16T19:41:39.015Z,63.00
2017-05-16T19:44:08.100Z,63.30
2017-05-16T19:46:37.438Z,63.40
2017-05-16T19:49:06.527Z,63.00
2017-05-16T19:51:36.312Z,64.20
2017-05-16T19:54:05.392Z,63.80
2017-05-16T19:56:34.431Z,64.30
2017-05-16T19:59:04.257Z,63.60
2017-05-16T20:01:33.309Z,64.20
2017-05-16T20:04:02.647Z,64.20
2017-05-16T20:06:31.716Z,64.30
2017-05-16T20:09:00.763Z,64.10
2017-05-16T20:11:29.857Z,64.00
2017-05-16T20:13:58.900Z,64.60
2017-05-16T20:16:27.983Z,64.30
2017-05-16T20:18:57.075Z,64.00
2017-05-16T20:21:26.118Z,63.80
2017-05-16T20:23:55.187Z,64.30
2017-05-16T20:26:24.233Z,64.20
2017-05-16T20:28:53.316Z,64.10
2017-05-16T20:31:22.356Z,64.00
2017-05-16T20:33:51.459Z,64.20
2017-05-16T20:36:20.507Z,64.50
2017-05-16T20:38:49.580Z,64.50
2017-05-16T20:41:19.396Z,64.20
2017-05-16T20:43:48.449Z,64.20
2017-05-16T20:46:17.523Z,64.40
2017-05-16T20:48:46.669Z,64.50
2017-05-16T20:51:16.497Z,64.50
2017-05-16T20:53:45.613Z,64.70
2017-05-16T20:56:14.701Z,64.40
2017-05-16T20:58:43.771Z,64.60
2017-05-16T21:01:13.802Z,64.50
2017-05-16T21:03:42.882Z,64.40
2017-05-16T21:06:12.692Z,65.50
2017-05-16T21:08:42.498Z,64.70
2017-05-16T21:11:11.550Z,64.80
2017-05-16T21:13:40.637Z,64.80
2017-05-16T21:16:09.663Z,64.90
2017-05-16T21:18:38.740Z,64.90
2017-05-16T21:21:07.779Z,64.90
2017-05-16T21:23:37.599Z,64.70
2017-05-16T21:26:07.409Z,65.10
2017-05-16T21:28:36.439Z,65.00
2017-05-16T21:31:05.626Z,64.90
2017-05-16T21:33:34.643Z,64.80
2017-05-16T21:36:04.016Z,65.00
2017-05-16T21:38:33.786Z,64.70
2017-05-16T21:41:02.865Z,64.60
2017-05-16T21:43:31.914Z,64.70
2017-05-16T21:46:01.721Z,64.60
2017-05-16T21:48:31.545Z,64.60
2017-05-16T21:51:00.577Z,64.40
2017-05-16T21:53:29.638Z,64.50
2017-05-16T21:55:58.709Z,64.00
2017-05-16T21:58:29.070Z,64.20
2017-05-16T22:00:58.123Z,64.50
2017-05-16T22:03:27.179Z,64.40
2017-05-16T22:05:56.248Z,63.90
2017-05-16T22:08:25.305Z,63.80
2017-05-16T22:10:54.362Z,63.70
2017-05-16T22:13:23.424Z,63.60
2017-05-16T22:15:52.492Z,63.40
2017-05-16T22:18:21.825Z,63.40
2017-05-16T22:20:51.939Z,63.20
2017-05-16T22:23:20.975Z,63.20
2017-05-16T22:25:50.051Z,63.00
2017-05-16T22:28:19.083Z,63.00
2017-05-16T22:30:48.146Z,62.60
2017-05-16T22:33:17.187Z,62.30
2017-05-16T22:35:46.248Z,62.40
2017-05-16T22:38:15.518Z,61.80
2017-05-16T22:40:44.584Z,62.80
2017-05-16T22:43:13.607Z,61.90
2017-05-16T22:45:42.700Z,62.10
2017-05-16T22:48:11.731Z,62.20
2017-05-16T22:50:40.792Z,62.20
2017-05-16T22:53:09.868Z,61.90
2017-05-16T22:55:39.677Z,62.40
2017-05-16T22:58:08.748Z,61.90
2017-05-16T23:00:37.788Z,62.40
2017-05-16T23:03:06.868Z,61.80
2017-05-16T23:05:36.652Z,62.00
2017-05-16T23:08:05.729Z,61.90
2017-05-16T23:10:34.804Z,62.00
2017-05-16T23:13:03.827Z,62.10
2017-05-16T23:15:32.907Z,62.10
2017-05-16T23:18:01.941Z,62.10
2017-05-16T23:20:31.000Z,62.10
2017-05-16T23:23:00.079Z,62.50
2017-05-16T23:25:29.113Z,62.30
2017-05-16T23:27:58.459Z,62.30
2017-05-16T23:30:27.532Z,62.60
2017-05-16T23:32:56.563Z,62.20
2017-05-16T23:35:25.626Z,62.60
2017-05-16T23:37:54.687Z,62.70
2017-05-16T23:40:23.719Z,62.70
2017-05-16T23:42:53.759Z,62.70
2017-05-16T23:45:22.791Z,62.70
2017-05-16T23:47:52.150Z,62.70
2017-05-16T23:50:21.963Z,62.30
2017-05-16T23:52:51.840Z,62.30
2017-05-16T23:55:20.937Z,62.10
2017-05-16T23:57:49.979Z,61.80
